Time;durP1;ratioP1;P1;durP2;ratioP2;P2;SDS_P1;SDS_P2;PMS_P1;PMS_P2;Temp;Humidity;BMP_temperature;BMP_pressure;BME280_temperature;BME280_humidity;BME280_pressure;Samples;Min_cycle;Max_cycle;Signal;HPM_P1;HPM_P2
2022/04/16 00:00:22;;;;;;;6.90;2.57;;;;;;;19.84;49.10;101225.84;5053449;28;20591;-60
2022/04/16 00:02:47;;;;;;;6.00;2.47;;;;;;;19.78;48.70;101218.72;5053908;28;20539;-60
2022/04/16 00:05:16;;;;;;;5.10;2.30;;;;;;;19.74;48.82;101221.47;5055978;28;20422;-60
2022/04/16 00:07:41;;;;;;;7.03;2.33;;;;;;;19.84;49.55;101220.94;5069642;28;20227;-61
2022/04/16 00:10:07;;;;;;;6.57;2.67;;;;;;;19.92;49.65;101225.66;5073926;28;20413;-60
2022/04/16 00:12:33;;;;;;;5.10;2.20;;;;;;;19.96;48.95;101229.44;5079426;28;20186;-61
2022/04/16 00:14:59;;;;;;;9.53;2.20;;;;;;;19.95;49.14;101224.94;5090476;28;20914;-60
2022/04/16 00:17:25;;;;;;;3.13;1.90;;;;;;;20.02;49.54;101227.97;5093352;28;20697;-60
2022/04/16 00:19:50;;;;;;;4.80;2.43;;;;;;;20.07;49.75;101227.72;5093975;28;20178;-61
2022/04/16 00:22:16;;;;;;;3.53;1.77;;;;;;;20.06;49.46;101222.34;5093499;28;20211;-61
2022/04/16 00:24:42;;;;;;;4.10;2.00;;;;;;;20.06;49.49;101219.50;5069898;28;20548;-60
2022/04/16 00:27:10;;;;;;;3.37;1.93;;;;;;;20.05;49.35;101220.66;5087880;28;20182;-60
2022/04/16 00:29:38;;;;;;;3.40;1.70;;;;;;;20.15;48.72;101212.41;5091659;28;20182;-60
2022/04/16 00:32:06;;;;;;;5.07;2.13;;;;;;;20.24;48.84;101221.66;5085388;28;20464;-60
2022/04/16 00:34:32;;;;;;;3.37;1.87;;;;;;;20.27;48.76;101223.75;5079610;28;20554;-60
2022/04/16 00:36:58;;;;;;;3.90;2.20;;;;;;;20.29;48.56;101220.53;5084456;28;20478;-60
2022/04/16 00:39:24;;;;;;;3.40;1.50;;;;;;;20.30;48.79;101223.03;5075642;28;20693;-60
2022/04/16 00:41:50;;;;;;;3.10;1.80;;;;;;;20.29;48.98;101227.09;5081373;28;20193;-60
2022/04/16 00:44:18;;;;;;;2.90;1.53;;;;;;;20.31;49.19;101218.94;5077513;28;20186;-60
2022/04/16 00:46:44;;;;;;;2.90;1.60;;;;;;;20.31;49.71;101215.28;5087142;28;20821;-60
2022/04/16 00:49:09;;;;;;;5.10;2.10;;;;;;;20.30;49.54;101220.16;5078437;28;20461;-60
2022/04/16 00:51:36;;;;;;;4.40;1.60;;;;;;;20.31;49.79;101218.13;5091960;28;20178;-60
2022/04/16 00:54:01;;;;;;;6.63;2.00;;;;;;;20.31;49.92;101221.00;5074430;28;20264;-60
2022/04/16 00:56:27;;;;;;;5.50;2.00;;;;;;;20.30;50.28;101210.72;5089476;28;20440;-60
2022/04/16 00:58:52;;;;;;;3.50;2.10;;;;;;;20.28;50.45;101219.72;5092726;28;20205;-60
2022/04/16 01:01:17;;;;;;;4.00;2.17;;;;;;;20.27;50.46;101229.50;5093192;28;20171;-60
2022/04/16 01:03:47;;;;;;;3.90;1.70;;;;;;;20.27;50.47;101218.03;5092740;28;20178;-60
2022/04/16 01:06:15;;;;;;;4.23;1.80;;;;;;;20.26;50.49;101224.97;5092604;28;20226;-60
2022/04/16 01:08:46;;;;;;;2.90;1.30;;;;;;;20.25;50.71;101220.44;5092593;28;20501;-60
2022/04/16 01:11:16;;;;;;;4.03;1.70;;;;;;;20.25;50.92;101223.31;5089030;28;20447;-60
2022/04/16 01:13:45;;;;;;;4.90;1.87;;;;;;;20.21;51.03;101216.66;5092864;28;20923;-60
2022/04/16 01:16:11;;;;;;;3.63;1.73;;;;;;;20.21;50.97;101219.50;5092569;28;20443;-60
2022/04/16 01:18:45;;;;;;;2.63;1.63;;;;;;;20.22;51.09;101220.34;5092585;28;20408;-60
2022/04/16 01:21:11;;;;;;;3.30;1.40;;;;;;;20.20;51.35;101214.97;5070690;28;20182;-60
2022/04/16 01:23:37;;;;;;;4.10;1.70;;;;;;;20.20;51.21;101212.13;5079969;28;20432;-60
2022/04/16 01:26:02;;;;;;;3.30;1.67;;;;;;;20.20;51.35;101214.97;5078518;28;20915;-60
2022/04/16 01:28:27;;;;;;;3.30;1.50;;;;;;;20.18;51.56;101208.78;5092324;28;20455;-60
2022/04/16 01:30:53;;;;;;;3.50;1.53;;;;;;;20.17;51.77;101209.97;5092223;28;20576;-60
2022/04/16 01:33:18;;;;;;;2.87;1.53;;;;;;;20.19;51.93;101215.34;5091650;28;20174;-60
2022/04/16 01:35:44;;;;;;;3.53;1.30;;;;;;;20.18;51.74;101213.69;5091285;28;20182;-60
2022/04/16 01:38:09;;;;;;;4.07;1.60;;;;;;;20.17;51.89;101212.84;5089219;28;20189;-60
2022/04/16 01:40:35;;;;;;;3.47;1.50;;;;;;;20.18;51.75;101214.53;5079985;28;20182;-60
2022/04/16 01:43:01;;;;;;;3.13;1.80;;;;;;;20.16;51.96;101224.72;5090293;28;20645;-60
2022/04/16 01:45:26;;;;;;;5.40;1.57;;;;;;;20.15;52.03;101223.88;5090470;28;20190;-60
2022/04/16 01:47:52;;;;;;;3.50;1.70;;;;;;;20.15;52.23;101218.13;5090510;28;20206;-60
2022/04/16 01:50:18;;;;;;;2.80;1.50;;;;;;;20.16;52.25;101221.84;5082528;28;20209;-61
2022/04/16 01:52:44;;;;;;;2.97;1.60;;;;;;;20.15;52.13;101209.53;5071732;28;20171;-60
2022/04/16 01:55:09;;;;;;;4.50;1.40;;;;;;;20.15;52.33;101215.25;5071848;28;20424;-61
2022/04/16 01:57:35;;;;;;;2.53;1.57;;;;;;;20.14;52.24;101213.59;5071692;28;20179;-60
2022/04/16 02:00:01;;;;;;;2.30;1.27;;;;;;;20.13;52.30;101217.69;5072041;28;20187;-60
2022/04/16 02:02:26;;;;;;;3.03;1.53;;;;;;;20.13;52.44;101223.41;5071571;28;20214;-60
2022/04/16 02:04:52;;;;;;;2.07;1.17;;;;;;;20.13;52.72;101226.28;5071752;28;20252;-60
2022/04/16 02:07:17;;;;;;;2.97;1.33;;;;;;;20.13;52.52;101217.69;5071242;28;20574;-60
2022/04/16 02:09:43;;;;;;;2.43;1.53;;;;;;;20.13;52.67;101219.69;5071327;28;20246;-60
2022/04/16 02:12:08;;;;;;;2.20;1.40;;;;;;;20.12;52.72;101220.91;5074286;28;20559;-60
2022/04/16 02:14:34;;;;;;;2.67;1.87;;;;;;;20.11;52.70;101222.13;5074000;28;20265;-60
2022/04/16 02:17:00;;;;;;;3.30;1.53;;;;;;;20.12;52.78;101210.25;5078905;28;20625;-60
2022/04/16 02:19:26;;;;;;;2.63;1.30;;;;;;;20.10;52.67;101206.94;5091801;28;20521;-60
2022/04/16 02:21:52;;;;;;;2.40;1.33;;;;;;;20.10;52.95;101212.66;5073885;28;20420;-60
2022/04/16 02:24:17;;;;;;;2.17;1.20;;;;;;;20.10;53.50;101214.69;5091646;28;20833;-60
2022/04/16 02:26:44;;;;;;;3.20;1.53;;;;;;;20.10;53.41;101215.53;5086453;28;20653;-60
2022/04/16 02:29:10;;;;;;;2.23;1.30;;;;;;;20.10;53.16;101217.56;5090480;28;20201;-60
2022/04/16 02:31:40;;;;;;;1.83;1.37;;;;;;;20.08;52.98;101212.22;5090339;28;20420;-60
2022/04/16 02:34:07;;;;;;;2.30;1.20;;;;;;;20.08;53.07;101209.34;5090290;28;20419;-60
2022/04/16 02:36:36;;;;;;;3.43;1.40;;;;;;;20.09;53.43;101218.78;5090389;28;20784;-60
2022/04/16 02:39:01;;;;;;;3.37;1.40;;;;;;;20.08;53.44;101215.09;5084232;28;20600;-60
2022/04/16 02:41:27;;;;;;;2.30;1.50;;;;;;;20.08;53.25;101214.25;5089514;28;20429;-60
2022/04/16 02:43:55;;;;;;;2.10;1.40;;;;;;;20.07;53.42;101213.41;5091556;28;20224;-60
2022/04/16 02:49:06;;;;;;;2.47;1.50;;;;;;;20.07;53.22;101216.25;5095046;28;20819;-60
2022/04/16 02:51:32;;;;;;;2.93;1.17;;;;;;;20.06;53.59;101220.31;5095401;28;20482;-60
2022/04/16 02:53:57;;;;;;;4.97;1.53;;;;;;;20.07;53.45;101221.16;5095401;28;20412;-60
2022/04/16 02:56:23;;;;;;;2.33;1.33;;;;;;;20.06;53.53;101222.34;5095561;28;20257;-60
2022/04/16 02:58:48;;;;;;;2.17;1.33;;;;;;;20.06;53.39;101223.16;5095194;28;20971;-60
2022/04/16 03:01:14;;;;;;;2.77;1.30;;;;;;;20.06;53.51;101228.91;5090250;28;20186;-60
2022/04/16 03:03:39;;;;;;;2.50;1.37;;;;;;;20.05;53.53;101227.25;5074740;28;20175;-60
2022/04/16 03:06:05;;;;;;;2.50;1.60;;;;;;;20.05;53.70;101226.41;5074907;28;20215;-60
2022/04/16 03:08:30;;;;;;;2.40;1.30;;;;;;;20.05;53.50;101227.25;5074545;28;20187;-60
2022/04/16 03:10:55;;;;;;;3.67;1.70;;;;;;;20.05;53.58;101226.41;5074728;28;20171;-60
2022/04/16 03:13:21;;;;;;;2.83;1.60;;;;;;;20.04;53.57;101237.06;5074731;28;20593;-60
2022/04/16 03:18:31;;;;;;;3.50;1.43;;;;;;;20.04;53.74;101230.47;5095003;28;21090;-60
2022/04/16 03:20:57;;;;;;;3.83;1.30;;;;;;;20.04;53.64;101234.19;5094730;28;20424;-60
2022/04/16 03:23:23;;;;;;;2.80;1.47;;;;;;;20.03;53.97;101232.53;5095124;28;20159;-60
2022/04/16 03:25:48;;;;;;;2.33;1.43;;;;;;;20.04;53.76;101228.47;5094661;28;20828;-60
2022/04/16 03:28:14;;;;;;;2.10;1.33;;;;;;;20.04;53.88;101231.31;5094774;28;20253;-60
2022/04/16 03:30:40;;;;;;;11.73;1.93;;;;;;;20.03;53.80;101229.66;5094614;28;20189;-60
2022/04/16 03:33:05;;;;;;;2.53;1.40;;;;;;;20.04;53.82;101230.47;5094540;28;20183;-60
2022/04/16 03:35:31;;;;;;;2.80;1.70;;;;;;;20.02;53.92;101225.09;5094444;28;20701;-60
2022/04/16 03:37:56;;;;;;;2.63;1.40;;;;;;;20.03;54.03;101223.94;5094650;28;20179;-60
2022/04/16 03:40:24;;;;;;;2.20;1.20;;;;;;;20.02;54.02;101232.88;5076246;28;20208;-60
2022/04/16 03:42:59;;;;;;;4.20;1.40;;;;;;;20.02;54.11;101222.25;5094537;28;20175;-60
2022/04/16 03:45:29;;;;;;;2.37;1.20;;;;;;;20.02;54.09;101233.72;5093970;28;20566;-60
2022/04/16 03:47:55;;;;;;;2.50;1.20;;;;;;;20.02;54.01;101227.97;5094163;28;20467;-60
2022/04/16 03:50:21;;;;;;;2.10;1.30;;;;;;;20.01;54.14;101225.50;5093669;28;20420;-60
2022/04/16 03:52:48;;;;;;;2.10;1.13;;;;;;;20.01;54.19;101226.31;5092904;28;20419;-60
2022/04/16 04:00:46;;;;;;;2.40;1.43;;;;;;;20.00;54.24;101221.78;5073905;28;20778;-60
2022/04/16 04:03:11;;;;;;;2.40;1.37;;;;;;;20.00;54.23;101221.78;5073996;28;20413;-60
2022/04/16 04:05:38;;;;;;;3.00;1.40;;;;;;;20.00;54.35;101224.66;5073552;28;20537;-60
2022/04/16 04:08:05;;;;;;;2.00;1.10;;;;;;;20.00;54.42;101233.25;5076072;28;20222;-60
2022/04/16 04:10:30;;;;;;;1.80;1.20;;;;;;;20.00;54.06;101239.00;5073201;28;20448;-62
2022/04/16 04:12:56;;;;;;;2.10;1.40;;;;;;;20.00;54.45;101236.13;5073662;28;20767;-60
2022/04/16 04:15:21;;;;;;;2.07;1.30;;;;;;;19.99;54.25;101240.19;5073351;28;20174;-60
2022/04/16 04:17:48;;;;;;;2.33;1.27;;;;;;;20.00;54.39;101247.59;5087433;28;20198;-60
2022/04/16 04:20:13;;;;;;;2.00;1.10;;;;;;;19.99;54.47;101251.66;5093590;28;20646;-60
2022/04/16 04:22:39;;;;;;;2.23;1.20;;;;;;;19.99;54.52;101251.66;5081596;28;20409;-60
2022/04/16 04:25:05;;;;;;;3.10;1.40;;;;;;;19.99;54.49;101245.94;5075480;28;20197;-60
2022/04/16 04:27:30;;;;;;;2.40;1.60;;;;;;;19.99;54.41;101257.41;5091538;28;20198;-60
2022/04/16 04:29:56;;;;;;;2.57;1.30;;;;;;;20.00;54.39;101261.06;5093478;28;20173;-60
2022/04/16 04:32:22;;;;;;;2.00;1.20;;;;;;;20.00;54.53;101255.34;5093219;28;20611;-60
2022/04/16 04:34:47;;;;;;;2.53;1.20;;;;;;;20.01;54.46;101259.91;5093204;28;20432;-60
2022/04/16 04:37:13;;;;;;;2.70;1.40;;;;;;;20.00;54.47;101266.81;5093459;28;20629;-60
2022/04/16 04:39:38;;;;;;;2.80;1.40;;;;;;;20.00;54.63;101267.66;5093021;28;20177;-60
2022/04/16 04:42:04;;;;;;;2.30;1.23;;;;;;;20.00;54.55;101267.66;5093554;28;20170;-60
2022/04/16 04:44:29;;;;;;;5.60;2.03;;;;;;;20.01;54.42;101257.03;5092851;28;20190;-60
2022/04/16 04:46:55;;;;;;;3.00;1.53;;;;;;;20.00;54.80;101259.06;5093322;28;20232;-60
2022/04/16 04:49:20;;;;;;;1.90;1.17;;;;;;;19.98;54.58;101261.47;5092294;28;20271;-60
2022/04/16 04:51:46;;;;;;;2.87;1.57;;;;;;;20.00;54.62;101263.94;5093372;28;20178;-60
2022/04/16 04:54:11;;;;;;;2.30;1.30;;;;;;;19.99;54.81;101274.59;5092500;28;20175;-60
2022/04/16 04:56:37;;;;;;;2.50;1.00;;;;;;;19.98;54.63;101267.19;5093234;28;20193;-60
2022/04/16 04:59:03;;;;;;;2.00;1.10;;;;;;;19.98;54.67;101278.66;5079352;28;20167;-60
2022/04/16 05:01:29;;;;;;;2.17;1.30;;;;;;;19.99;54.58;101279.47;5072613;28;20171;-60
2022/04/16 05:03:54;;;;;;;2.50;1.50;;;;;;;19.97;54.71;101282.69;5072701;28;20579;-60
2022/04/16 05:06:20;;;;;;;1.80;1.03;;;;;;;19.97;54.64;101279.03;5072194;28;20469;-60
2022/04/16 05:08:45;;;;;;;2.50;1.20;;;;;;;19.98;54.61;101280.69;5071395;28;20202;-60
2022/04/16 05:11:11;;;;;;;1.93;1.30;;;;;;;19.98;54.75;101287.25;5074780;28;20658;-60
2022/04/16 05:13:36;;;;;;;1.70;0.93;;;;;;;19.97;54.68;101291.31;5072358;28;20167;-60
2022/04/16 05:16:02;;;;;;;2.30;1.27;;;;;;;19.97;54.69;101291.31;5072238;28;20187;-60
2022/04/16 05:18:27;;;;;;;2.60;1.10;;;;;;;19.98;54.76;101295.00;5092105;28;20227;-60
2022/04/16 05:20:52;;;;;;;2.70;1.40;;;;;;;19.97;54.85;101297.03;5090648;28;20182;-60
2022/04/16 05:23:18;;;;;;;1.90;1.30;;;;;;;19.97;54.83;101281.88;5090360;28;20189;-60
2022/04/16 05:25:43;;;;;;;2.03;1.30;;;;;;;19.98;54.85;101293.00;5090646;28;20186;-60
2022/04/16 05:28:11;;;;;;;2.57;1.60;;;;;;;19.97;54.86;101293.34;5090505;28;20198;-60
2022/04/16 05:30:48;;;;;;;1.70;0.97;;;;;;;19.97;54.78;101299.91;5090287;28;20170;-60
2022/04/16 05:34:18;;;;;;;2.60;1.70;;;;;;;19.95;54.79;101305.19;5090779;28;20405;-60
2022/04/16 05:36:02;;;;;;;2.30;1.30;;;;;;;19.97;54.81;101299.91;5091628;28;20515;-60
2022/04/16 05:38:27;;;;;;;2.10;1.20;;;;;;;19.97;54.91;101308.50;5074175;28;20923;-60
2022/04/16 05:40:53;;;;;;;2.90;1.40;;;;;;;19.98;54.77;101312.22;5091814;28;20423;-60
2022/04/16 05:43:19;;;;;;;2.80;1.20;;;;;;;19.96;54.68;101315.44;5092300;28;20166;-60
2022/04/16 05:45:44;;;;;;;2.27;1.17;;;;;;;19.97;54.85;101308.50;5091799;28;20191;-60
2022/04/16 05:48:10;;;;;;;2.10;1.20;;;;;;;19.96;54.85;101318.31;5091899;28;20186;-60
2022/04/16 05:50:35;;;;;;;2.20;1.40;;;;;;;19.95;54.81;101310.91;5091609;28;20186;-60
2022/04/16 05:53:01;;;;;;;1.90;0.97;;;;;;;19.97;54.59;101322.03;5074057;28;20166;-61
2022/04/16 05:55:26;;;;;;;2.00;1.10;;;;;;;19.95;54.94;101324.41;5073727;28;20170;-60
2022/04/16 05:57:51;;;;;;;1.70;1.00;;;;;;;19.95;54.81;101325.25;5092054;28;20193;-60
2022/04/16 06:00:17;;;;;;;2.50;1.30;;;;;;;19.98;55.16;101335.16;5091471;28;20538;-60
2022/04/16 06:02:43;;;;;;;2.13;1.20;;;;;;;19.96;54.91;101335.50;5091956;28;20219;-60
2022/04/16 06:05:09;;;;;;;2.37;1.20;;;;;;;19.97;55.14;101334.31;5091596;28;20170;-60
2022/04/16 06:07:34;;;;;;;2.77;1.40;;;;;;;19.95;54.89;101330.97;5091685;28;20222;-60
2022/04/16 06:09:59;;;;;;;2.87;1.47;;;;;;;19.97;55.01;101342.09;5091611;28;20178;-60
2022/04/16 06:12:28;;;;;;;1.80;0.93;;;;;;;19.96;55.01;101332.63;5076490;28;20183;-60
2022/04/16 06:14:54;;;;;;;1.97;1.13;;;;;;;19.96;54.85;101341.25;5071608;28;20175;-60
2022/04/16 06:17:19;;;;;;;2.40;1.33;;;;;;;19.95;54.93;101347.31;5081397;28;20408;-60
2022/04/16 06:19:45;;;;;;;1.80;1.13;;;;;;;19.95;54.88;101348.19;5091123;28;20236;-60
2022/04/16 06:22:11;;;;;;;1.90;1.20;;;;;;;19.95;55.12;101341.59;5091701;28;20174;-60
2022/04/16 06:24:41;;;;;;;1.70;1.00;;;;;;;19.96;55.14;101349.84;5091666;28;20162;-60
2022/04/16 06:27:06;;;;;;;1.60;1.00;;;;;;;19.96;54.95;101361.31;5085127;28;20428;-60
2022/04/16 06:29:32;;;;;;;2.00;1.27;;;;;;;19.95;55.13;101362.50;5076092;28;20815;-60
2022/04/16 06:31:57;;;;;;;2.17;1.20;;;;;;;19.96;54.93;101361.31;5091288;28;20633;-60
2022/04/16 06:34:23;;;;;;;2.20;1.40;;;;;;;19.95;55.04;101358.78;5073456;28;20171;-60
2022/04/16 06:36:49;;;;;;;2.30;1.20;;;;;;;19.95;55.23;101359.63;5091546;28;20170;-60
2022/04/16 06:39:15;;;;;;;2.07;1.10;;;;;;;19.94;55.24;101352.25;5091231;28;20412;-60
2022/04/16 06:41:40;;;;;;;2.47;1.43;;;;;;;19.96;55.12;101360.50;5091700;28;20796;-60
2022/04/16 06:44:06;;;;;;;1.90;1.20;;;;;;;19.94;55.03;101363.72;5080164;28;20209;-60
2022/04/16 06:46:32;;;;;;;1.87;0.93;;;;;;;19.94;55.09;101362.88;5079208;28;20644;-60
2022/04/16 06:48:58;;;;;;;4.27;1.30;;;;;;;19.94;55.17;101357.97;5078271;28;20199;-60
2022/04/16 06:51:26;;;;;;;1.50;0.97;;;;;;;19.95;55.17;101364.53;5081721;28;20209;-60
2022/04/16 06:53:51;;;;;;;2.07;1.47;;;;;;;19.95;55.39;101379.72;5071028;28;20700;-60
2022/04/16 06:56:17;;;;;;;2.03;1.20;;;;;;;19.94;55.05;101369.44;5084190;28;20444;-60
2022/04/16 06:58:42;;;;;;;3.20;1.20;;;;;;;19.94;55.20;101369.44;5091161;28;20171;-60
2022/04/16 07:01:08;;;;;;;3.50;1.00;;;;;;;19.94;55.00;101372.31;5090521;28;20181;-60
2022/04/16 07:03:34;;;;;;;2.20;1.00;;;;;;;19.94;55.17;101375.19;5090062;28;20174;-60
2022/04/16 07:05:59;;;;;;;1.97;1.10;;;;;;;19.95;55.23;101376.00;5087323;28;20196;-60
2022/04/16 07:08:25;;;;;;;1.80;1.10;;;;;;;19.94;55.05;101374.31;5090916;28;20194;-60
2022/04/16 07:10:50;;;;;;;2.10;1.30;;;;;;;19.95;55.35;101370.25;5090877;28;20170;-60
2022/04/16 07:13:16;;;;;;;2.83;1.10;;;;;;;19.93;55.29;101361.22;5090281;28;20178;-60
2022/04/16 07:15:41;;;;;;;1.73;1.00;;;;;;;19.94;55.17;101366.56;5089547;28;20174;-60
2022/04/16 07:18:07;;;;;;;1.80;1.00;;;;;;;19.93;55.36;101373.50;5088696;28;20181;-60
2022/04/16 07:20:33;;;;;;;1.90;1.20;;;;;;;19.92;55.27;101374.69;5082624;28;20273;-60
2022/04/16 07:22:59;;;;;;;1.80;1.00;;;;;;;19.94;55.24;101374.31;5085829;28;20953;-60
2022/04/16 07:25:25;;;;;;;2.10;1.13;;;;;;;19.94;55.32;101372.31;5079333;28;21579;-60
2022/04/16 07:27:51;;;;;;;1.67;0.90;;;;;;;19.93;55.23;101376.38;5090899;28;20202;-60
2022/04/16 07:30:17;;;;;;;1.90;1.10;;;;;;;19.94;55.33;101368.59;5090978;28;20424;-60
2022/04/16 07:32:42;;;;;;;2.00;1.20;;;;;;;19.92;55.20;101371.00;5087939;28;20209;-60
2022/04/16 07:35:07;;;;;;;2.00;1.10;;;;;;;19.92;55.31;101374.69;5080078;28;20183;-60
2022/04/16 07:37:33;;;;;;;3.83;1.90;;;;;;;19.67;51.96;101393.16;5084876;28;20233;-60
2022/04/16 07:39:58;;;;;;;4.23;1.93;;;;;;;19.47;50.55;101382.72;5081952;28;20186;-60
2022/04/16 07:42:27;;;;;;;5.67;1.80;;;;;;;19.46;51.70;101391.69;5077023;28;20183;-60
2022/04/16 07:44:54;;;;;;;4.07;2.23;;;;;;;19.55;50.95;101396.06;5081050;28;20186;-60
2022/04/16 07:47:19;;;;;;;5.97;2.47;;;;;;;19.64;51.30;101404.50;5080177;28;20487;-60
2022/04/16 07:49:44;;;;;;;3.27;2.07;;;;;;;19.83;50.24;101404.72;5085231;28;20456;-60
2022/04/16 07:52:10;;;;;;;6.80;2.50;;;;;;;19.76;48.07;101399.59;5072454;28;20313;-60
2022/04/16 07:54:37;;;;;;;3.30;2.20;;;;;;;19.84;48.66;101403.50;5079886;28;20572;-59
2022/04/16 07:57:04;;;;;;;6.63;2.77;;;;;;;19.94;48.63;101408.72;5078803;28;20178;-60
2022/04/16 07:59:30;;;;;;;4.90;2.60;;;;;;;19.94;48.40;101403.00;5084421;28;20474;-60
2022/04/16 08:01:55;;;;;;;4.10;1.87;;;;;;;19.92;48.85;101405.41;5087424;28;20432;-62
2022/04/16 08:04:21;;;;;;;5.13;2.23;;;;;;;19.83;48.23;101407.56;5090038;28;20335;-60
2022/04/16 08:06:46;;;;;;;6.03;2.10;;;;;;;19.76;48.16;101408.19;5092878;28;20240;-61
2022/04/16 08:09:11;;;;;;;3.70;2.40;;;;;;;19.74;49.18;101410.59;5082447;28;20198;-61
2022/04/16 08:11:37;;;;;;;5.00;1.97;;;;;;;19.70;48.75;101411.66;5091662;28;20203;-60
2022/04/16 08:14:02;;;;;;;3.30;2.20;;;;;;;19.77;49.19;101412.72;5073192;28;20171;-60
2022/04/16 08:16:28;;;;;;;3.13;1.80;;;;;;;19.93;49.09;101419.38;5081311;28;20185;-61
2022/04/16 08:18:53;;;;;;;3.60;2.27;;;;;;;19.97;49.33;101423.16;5071039;28;20229;-61
2022/04/16 08:21:20;;;;;;;4.00;2.43;;;;;;;19.96;48.99;101424.38;5070688;28;20194;-60
2022/04/16 08:23:55;;;;;;;5.87;1.70;;;;;;;19.97;48.85;101430.94;5065107;28;20201;-60
2022/04/16 08:26:24;;;;;;;3.57;1.93;;;;;;;19.94;48.93;101434.53;5068277;28;20420;-60
2022/04/16 08:28:50;;;;;;;3.30;1.87;;;;;;;19.99;48.42;101440.84;5078974;28;20949;-61
2022/04/16 08:31:15;;;;;;;4.50;2.33;;;;;;;19.96;48.04;101435.00;5088737;28;20420;-60
2022/04/16 08:33:41;;;;;;;3.93;2.07;;;;;;;19.95;48.28;101445.63;5089063;28;20163;-61
2022/04/16 08:36:06;;;;;;;3.63;2.10;;;;;;;19.91;47.93;101450.41;5093282;28;20151;-59
2022/04/16 08:38:31;;;;;;;5.40;2.10;;;;;;;19.90;48.08;101448.75;5080479;28;20700;-60
2022/04/16 08:40:57;;;;;;;2.83;1.87;;;;;;;19.90;47.87;101448.75;5083636;28;20190;-60
2022/04/16 08:43:22;;;;;;;5.40;1.67;;;;;;;19.82;47.89;101441.13;5068126;28;20189;-60
2022/04/16 08:45:49;;;;;;;3.20;1.80;;;;;;;19.75;47.28;101443.78;5092882;28;20191;-60
2022/04/16 08:48:14;;;;;;;3.77;1.80;;;;;;;19.68;47.53;101440.69;5091142;28;20210;-61
2022/04/16 08:50:40;;;;;;;9.67;2.13;;;;;;;19.63;46.39;101448.69;5073673;28;20412;-60
2022/04/16 08:53:05;;;;;;;3.80;2.50;;;;;;;19.60;46.74;101449.41;5058109;28;20175;-60
2022/04/16 08:55:31;;;;;;;2.83;1.97;;;;;;;19.62;46.29;101444.16;5093227;28;20181;-61
2022/04/16 08:57:57;;;;;;;2.30;1.50;;;;;;;19.64;45.55;101453.22;5091404;28;20202;-61
2022/04/16 09:00:22;;;;;;;3.37;1.80;;;;;;;19.66;45.28;101447.97;5092107;28;20260;-60
2022/04/16 09:02:56;;;;;;;3.27;1.80;;;;;;;19.65;45.00;101447.13;5091378;28;20178;-61
2022/04/16 09:05:22;;;;;;;2.93;1.50;;;;;;;19.67;45.08;101449.66;5074980;28;20189;-61
2022/04/16 09:07:52;;;;;;;3.60;1.97;;;;;;;19.67;44.55;101449.66;5088998;28;20477;-60
2022/04/16 09:10:18;;;;;;;2.60;1.80;;;;;;;19.65;44.69;101440.56;5092649;28;20556;-61
2022/04/16 09:12:45;;;;;;;6.53;2.40;;;;;;;19.65;44.51;101455.72;5076869;28;20484;-61
2022/04/16 09:15:12;;;;;;;11.10;2.10;;;;;;;19.66;45.05;101454.53;5061489;28;20182;-61
2022/04/16 09:17:38;;;;;;;33.73;3.10;;;;;;;19.70;45.39;101458.34;5071565;28;20441;-61
2022/04/16 09:20:08;;;;;;;14.00;2.60;;;;;;;19.65;45.37;101452.88;5090396;28;20484;-61
2022/04/16 09:22:35;;;;;;;32.47;2.97;;;;;;;19.68;45.43;101446.44;5090717;28;20254;-61
2022/04/16 09:25:02;;;;;;;11.03;2.40;;;;;;;19.73;45.97;101448.19;5083291;28;21146;-61
2022/04/16 09:27:28;;;;;;;15.67;2.50;;;;;;;19.70;45.47;101438.28;5062529;28;21175;-62
2022/04/16 09:29:54;;;;;;;11.93;2.43;;;;;;;19.70;44.72;101446.88;5052985;28;20432;-60
2022/04/16 09:32:26;;;;;;;11.17;2.60;;;;;;;19.71;45.27;101444.88;5052842;28;20900;-60
2022/04/16 09:34:52;;;;;;;4.93;2.10;;;;;;;19.74;45.01;101449.84;5081193;28;20235;-60
2022/04/16 09:37:17;;;;;;;6.30;1.97;;;;;;;19.80;45.60;101445.53;5056052;28;20789;-60
2022/04/16 09:39:43;;;;;;;8.20;2.50;;;;;;;19.91;46.07;101438.94;5091380;28;20420;-61
2022/04/16 09:42:08;;;;;;;5.33;1.70;;;;;;;19.91;46.14;101438.94;5081487;28;20193;-60
2022/04/16 09:44:34;;;;;;;8.93;2.17;;;;;;;19.90;46.07;101439.31;5076438;28;20231;-61
2022/04/16 09:46:59;;;;;;;5.00;2.57;;;;;;;19.85;46.59;101433.81;5071461;28;20642;-60
2022/04/16 09:49:25;;;;;;;9.33;2.17;;;;;;;19.92;47.11;101449.22;5060633;28;20214;-60
2022/04/16 09:51:51;;;;;;;5.33;2.30;;;;;;;19.95;47.30;101442.75;5091030;28;20265;-60
2022/04/16 09:54:17;;;;;;;4.43;2.00;;;;;;;19.89;46.50;101444.22;5090703;28;20618;-60
2022/04/16 09:56:47;;;;;;;4.77;1.87;;;;;;;19.88;47.12;101444.56;5088773;28;20189;-60
2022/04/16 09:59:14;;;;;;;4.47;1.70;;;;;;;19.88;46.70;101438.84;5090144;28;20448;-60
2022/04/16 10:01:47;;;;;;;4.27;1.90;;;;;;;19.87;47.02;101443.72;5091658;28;20396;-60
2022/04/16 10:04:17;;;;;;;3.87;2.20;;;;;;;19.79;47.12;101452.47;5091902;28;20446;-62
2022/04/16 10:06:43;;;;;;;4.90;2.67;;;;;;;19.73;46.30;101440.44;5090449;28;20541;-60
2022/04/16 10:09:17;;;;;;;2.80;2.20;;;;;;;19.68;45.77;101443.56;5071489;28;20469;-60
2022/04/16 10:14:38;;;;;;;3.50;1.97;;;;;;;19.62;46.23;101444.97;5091728;28;20482;-61
2022/04/16 10:17:18;;;;;;;3.27;1.60;;;;;;;19.64;45.88;101445.47;5069650;28;20420;-61
2022/04/16 10:19:46;;;;;;;3.17;1.90;;;;;;;19.69;46.17;101450.97;5070381;28;20935;-61
2022/04/16 10:22:25;;;;;;;3.50;2.00;;;;;;;19.77;46.29;101454.88;5070907;28;20475;-61
2022/04/16 10:24:57;;;;;;;2.73;1.67;;;;;;;19.82;46.27;101457.50;5071377;28;20429;-62
2022/04/16 10:27:27;;;;;;;5.10;2.13;;;;;;;19.87;46.39;101452.31;5084236;28;20452;-62
2022/04/16 10:30:02;;;;;;;3.23;2.00;;;;;;;19.88;45.78;101445.44;5082717;28;20437;-62
2022/04/16 10:32:40;;;;;;;4.07;1.90;;;;;;;19.83;45.97;101454.28;5084756;28;20431;-62
2022/04/16 10:35:17;;;;;;;3.87;2.00;;;;;;;19.74;45.71;101464.19;5078976;28;20910;-61
2022/04/16 10:37:49;;;;;;;3.80;1.77;;;;;;;19.67;45.93;101450.47;5071218;28;20643;-61
2022/04/16 10:40:21;;;;;;;4.57;2.53;;;;;;;19.64;46.13;101456.94;5071236;28;20421;-61
2022/04/16 10:42:50;;;;;;;4.53;2.20;;;;;;;19.65;45.96;101458.59;5080255;28;20420;-61
2022/04/16 10:45:16;;;;;;;3.20;2.10;;;;;;;19.65;46.00;101454.88;5077044;28;20850;-61
2022/04/16 10:47:41;;;;;;;5.80;2.23;;;;;;;19.61;45.91;101446.19;5087221;28;20468;-62
2022/04/16 10:50:15;;;;;;;6.13;2.30;;;;;;;19.61;45.66;101446.19;5080403;28;20186;-62
2022/04/16 10:52:51;;;;;;;3.23;1.87;;;;;;;19.69;46.18;101444.38;5084032;28;20191;-63
2022/04/16 10:55:17;;;;;;;5.60;2.70;;;;;;;19.73;46.46;101448.19;5078077;28;20424;-62
2022/04/16 10:57:42;;;;;;;6.33;2.10;;;;;;;19.71;45.82;101448.56;5086270;28;20961;-63
2022/04/16 11:00:14;;;;;;;5.57;2.13;;;;;;;19.74;45.47;101444.97;5051013;28;20186;-63
2022/04/16 11:02:39;;;;;;;4.30;2.17;;;;;;;19.73;46.13;101449.03;5069385;28;20576;-61
2022/04/16 11:05:09;;;;;;;4.13;2.33;;;;;;;19.75;46.02;101452.38;5066251;28;20428;-61
2022/04/16 11:07:38;;;;;;;7.87;2.33;;;;;;;19.74;46.20;101447.84;5090858;28;20306;-61
2022/04/16 11:10:04;;;;;;;6.83;2.13;;;;;;;19.73;46.60;101449.03;5094939;28;20560;-61
2022/04/16 11:12:29;;;;;;;5.07;2.23;;;;;;;19.74;46.41;101444.13;5093987;28;20425;-62
2022/04/16 11:14:55;;;;;;;4.50;2.30;;;;;;;19.74;46.31;101444.97;5094804;28;20825;-62
2022/04/16 11:17:20;;;;;;;5.10;2.63;;;;;;;19.75;46.79;101440.06;5094678;28;20170;-62
2022/04/16 11:19:48;;;;;;;7.10;2.37;;;;;;;19.74;46.63;101441.25;5094865;28;20630;-62
2022/04/16 11:22:14;;;;;;;4.53;2.70;;;;;;;19.73;46.24;101434.72;5090507;28;20228;-61
2022/04/16 11:24:40;;;;;;;4.70;2.37;;;;;;;19.72;47.47;101444.47;5091724;28;20931;-61
2022/04/16 11:35:23;;;;;;;5.53;2.30;;;;;;;19.75;47.04;101423.72;5072883;28;20456;-61
2022/04/16 11:37:57;;;;;;;5.70;2.50;;;;;;;19.74;47.23;101430.66;5084989;28;20427;-61
2022/04/16 11:40:23;;;;;;;3.20;2.17;;;;;;;19.75;47.25;101435.19;5091752;28;20439;-61
2022/04/16 11:42:48;;;;;;;7.93;2.37;;;;;;;19.76;47.17;101439.69;5078685;28;20433;-61